createdAt,value
2022-12-18T00:01:47.757Z,2.30
2022-12-18T00:04:25.570Z,1.30
2022-12-18T00:06:52.765Z,1.27
2022-12-18T00:09:21.341Z,1.00
2022-12-18T00:11:51.646Z,1.67
2022-12-18T00:14:18.429Z,1.27
2022-12-18T00:16:46.950Z,2.37
2022-12-18T00:19:15.027Z,1.00
2022-12-18T00:21:43.307Z,2.07
2022-12-18T00:24:11.722Z,1.77
2022-12-18T00:26:40.054Z,0.60
2022-12-18T00:29:17.300Z,1.13
2022-12-18T00:32:03.026Z,0.70
2022-12-18T00:34:29.849Z,0.70
2022-12-18T00:36:56.741Z,1.10
2022-12-18T00:39:23.604Z,1.40
2022-12-18T00:42:08.918Z,0.63
2022-12-18T00:44:35.804Z,0.70
2022-12-18T00:47:02.721Z,0.90
2022-12-18T00:49:29.499Z,0.63
2022-12-18T00:51:56.293Z,0.50
2022-12-18T00:54:23.160Z,0.80
2022-12-18T00:56:50.384Z,0.77
2022-12-18T00:59:19.077Z,0.50
2022-12-18T01:01:46.504Z,0.80
2022-12-18T01:04:13.956Z,0.67
2022-12-18T01:06:41.315Z,1.10
2022-12-18T01:09:08.065Z,0.97
2022-12-18T01:11:37.120Z,1.13
2022-12-18T01:14:05.159Z,1.40
2022-12-18T01:16:32.177Z,1.80
2022-12-18T01:18:59.068Z,2.10
2022-12-18T01:21:28.076Z,2.07
2022-12-18T01:23:56.739Z,1.70
2022-12-18T01:26:25.746Z,1.53
2022-12-18T01:28:52.783Z,2.13
2022-12-18T01:31:26.016Z,1.77
2022-12-18T01:33:54.444Z,2.00
2022-12-18T01:36:33.215Z,2.03
2022-12-18T01:39:06.480Z,1.40
2022-12-18T01:41:53.420Z,1.80
2022-12-18T01:44:48.596Z,1.03
2022-12-18T01:47:35.100Z,2.30
2022-12-18T01:50:11.560Z,1.27
2022-12-18T01:52:39.008Z,0.97
2022-12-18T01:55:07.549Z,0.97
2022-12-18T01:57:34.733Z,1.33
2022-12-18T02:00:08.052Z,1.80
2022-12-18T02:02:42.720Z,2.00
2022-12-18T02:05:11.440Z,2.13
2022-12-18T02:07:55.615Z,2.20
2022-12-18T02:10:35.722Z,2.40
2022-12-18T02:13:08.228Z,2.43
2022-12-18T02:16:01.159Z,1.73
2022-12-18T02:18:37.254Z,2.87
2022-12-18T02:21:46.400Z,2.00
2022-12-18T02:24:30.390Z,3.00
2022-12-18T02:27:09.481Z,2.33
2022-12-18T02:29:41.586Z,2.20
2022-12-18T02:32:14.060Z,2.83
2022-12-18T02:34:44.356Z,1.17
2022-12-18T02:37:19.657Z,1.60
2022-12-18T02:39:50.763Z,1.33
2022-12-18T02:45:07.530Z,1.03
2022-12-18T02:47:40.253Z,1.40
2022-12-18T02:50:39.502Z,2.10
2022-12-18T02:53:19.223Z,1.70
2022-12-18T02:56:07.728Z,1.10
2022-12-18T02:58:43.420Z,0.83
2022-12-18T03:01:34.694Z,0.90
2022-12-18T03:04:08.604Z,0.90
2022-12-18T03:06:49.565Z,2.00
2022-12-18T03:09:42.014Z,1.47
2022-12-18T03:12:44.222Z,1.50
2022-12-18T03:15:18.549Z,1.27
2022-12-18T03:18:17.180Z,1.10
2022-12-18T03:20:47.520Z,0.83
2022-12-18T03:23:26.291Z,1.30
2022-12-18T03:25:57.712Z,1.17
2022-12-18T03:28:31.014Z,0.63
2022-12-18T03:31:03.698Z,0.70
2022-12-18T03:33:45.084Z,0.67
2022-12-18T03:36:12.488Z,0.90
2022-12-18T03:38:39.792Z,1.77
2022-12-18T03:41:19.149Z,1.00
2022-12-18T03:44:50.178Z,1.20
2022-12-18T03:47:50.828Z,1.10
2022-12-18T03:50:25.993Z,1.43
2022-12-18T03:53:08.517Z,1.50
2022-12-18T03:55:37.088Z,1.33
2022-12-18T03:58:08.424Z,1.27
2022-12-18T04:00:49.083Z,1.67
2022-12-18T04:06:08.747Z,1.47
2022-12-18T04:08:36.215Z,1.63
2022-12-18T04:11:06.957Z,1.93
2022-12-18T04:13:37.666Z,1.73
2022-12-18T04:16:10.392Z,1.90
2022-12-18T04:18:40.856Z,1.33
2022-12-18T04:21:08.853Z,1.83
2022-12-18T04:23:35.608Z,1.67
2022-12-18T04:26:21.285Z,1.60
2022-12-18T04:29:08.313Z,1.50
2022-12-18T04:31:35.300Z,1.70
2022-12-18T04:34:03.187Z,1.77
2022-12-18T04:36:34.124Z,1.07
2022-12-18T04:39:00.914Z,1.10
2022-12-18T04:41:27.683Z,1.53
2022-12-18T04:43:54.898Z,1.13
2022-12-18T04:46:21.713Z,1.30
2022-12-18T04:48:48.575Z,0.83
2022-12-18T04:51:15.741Z,0.97
2022-12-18T04:53:43.054Z,0.87
2022-12-18T04:56:11.397Z,0.83
2022-12-18T04:58:40.129Z,0.80
2022-12-18T05:01:08.462Z,0.50
2022-12-18T05:03:36.935Z,0.73
2022-12-18T05:06:05.174Z,0.90
2022-12-18T05:08:32.615Z,0.70
2022-12-18T05:11:07.291Z,0.60
2022-12-18T05:13:35.920Z,1.50
2022-12-18T05:16:03.738Z,0.80
2022-12-18T05:18:31.345Z,0.70
2022-12-18T05:20:58.522Z,0.70
2022-12-18T05:23:44.025Z,0.90
2022-12-18T05:26:35.326Z,0.80
2022-12-18T05:29:02.162Z,1.43
2022-12-18T05:31:28.937Z,1.00
2022-12-18T05:33:55.772Z,0.90
2022-12-18T05:36:22.481Z,1.33
2022-12-18T05:38:49.325Z,1.10
2022-12-18T05:41:16.144Z,1.47
2022-12-18T05:43:43.341Z,1.40
2022-12-18T05:46:14.628Z,1.60
2022-12-18T05:48:42.162Z,1.70
2022-12-18T05:51:17.233Z,2.27
2022-12-18T05:53:44.997Z,2.03
2022-12-18T05:56:20.562Z,2.30
2022-12-18T05:58:48.146Z,2.30
2022-12-18T06:01:19.275Z,2.20
2022-12-18T06:03:46.544Z,2.80
2022-12-18T06:06:24.938Z,2.60
2022-12-18T06:08:54.107Z,2.37
2022-12-18T06:11:23.433Z,3.03
2022-12-18T06:13:57.962Z,3.03
2022-12-18T06:16:25.669Z,3.07
2022-12-18T06:18:52.425Z,2.60
2022-12-18T06:21:19.300Z,4.00
2022-12-18T06:23:46.020Z,3.37
2022-12-18T06:26:14.269Z,3.17
2022-12-18T06:28:41.390Z,3.90
2022-12-18T06:31:09.737Z,4.33
2022-12-18T06:33:37.012Z,4.47
2022-12-18T06:36:06.448Z,4.20
2022-12-18T06:38:36.678Z,3.80
2022-12-18T06:41:12.493Z,4.97
2022-12-18T06:43:39.913Z,4.80
2022-12-18T06:46:07.212Z,4.50
2022-12-18T06:48:34.295Z,4.63
2022-12-18T06:51:01.286Z,4.10
2022-12-18T06:53:28.624Z,5.63
2022-12-18T06:56:14.785Z,4.77
2022-12-18T06:58:41.857Z,4.77
2022-12-18T07:01:11.089Z,4.53
2022-12-18T07:03:39.703Z,4.83
2022-12-18T07:06:07.404Z,6.27
2022-12-18T07:08:34.579Z,6.17
2022-12-18T07:11:05.003Z,6.17
2022-12-18T07:13:32.300Z,6.00
2022-12-18T07:16:24.344Z,6.03
2022-12-18T07:18:52.594Z,5.60
2022-12-18T07:21:20.594Z,5.13
2022-12-18T07:23:49.245Z,5.00
2022-12-18T07:26:34.925Z,5.50
2022-12-18T07:29:01.685Z,5.90
2022-12-18T07:31:28.632Z,5.83
2022-12-18T07:33:55.446Z,6.57
2022-12-18T07:36:25.229Z,6.20
2022-12-18T07:38:53.858Z,6.30
2022-12-18T07:41:21.368Z,6.13
2022-12-18T07:43:48.844Z,4.77
2022-12-18T07:46:16.999Z,5.63
2022-12-18T07:48:49.144Z,6.17
2022-12-18T07:51:16.410Z,5.70
2022-12-18T07:53:43.942Z,4.40
2022-12-18T07:56:30.106Z,5.67
2022-12-18T07:58:59.064Z,5.00
2022-12-18T08:01:26.146Z,4.70
2022-12-18T08:03:53.104Z,4.17
2022-12-18T08:06:23.405Z,3.90
2022-12-18T08:08:55.698Z,4.23
2022-12-18T08:11:23.878Z,4.77
2022-12-18T08:13:50.908Z,4.63
2022-12-18T08:16:18.757Z,6.00
2022-12-18T08:18:46.953Z,6.00
2022-12-18T08:21:16.669Z,5.43
2022-12-18T08:23:44.116Z,4.57
2022-12-18T08:26:12.571Z,3.63
2022-12-18T08:28:39.964Z,4.83
2022-12-18T08:31:07.485Z,5.33
2022-12-18T08:33:35.802Z,4.77
2022-12-18T08:36:03.482Z,4.73
2022-12-18T08:38:30.272Z,4.97
2022-12-18T08:41:16.926Z,4.23
2022-12-18T08:44:02.501Z,4.40
2022-12-18T08:46:36.209Z,4.70
2022-12-18T08:49:03.222Z,4.50
2022-12-18T08:51:30.648Z,3.80
2022-12-18T08:53:57.796Z,5.83
2022-12-18T08:56:24.711Z,5.87
2022-12-18T08:58:55.824Z,5.27
2022-12-18T09:01:23.257Z,6.07
2022-12-18T09:04:10.649Z,4.93
2022-12-18T09:06:56.341Z,5.70
2022-12-18T09:09:41.746Z,5.40
2022-12-18T09:12:08.522Z,5.03
2022-12-18T09:14:35.260Z,3.40
2022-12-18T09:19:46.273Z,3.87
2022-12-18T09:22:13.035Z,3.60
2022-12-18T09:24:39.901Z,3.17
2022-12-18T09:27:06.992Z,2.37
2022-12-18T09:29:53.189Z,3.00
2022-12-18T09:32:39.101Z,2.83
2022-12-18T09:35:06.662Z,2.17
2022-12-18T09:37:33.373Z,2.20
2022-12-18T09:45:49.042Z,2.30
2022-12-18T09:48:21.791Z,1.73
2022-12-18T09:53:39.778Z,2.53
2022-12-18T09:56:07.612Z,1.40
2022-12-18T09:58:43.465Z,2.10
2022-12-18T10:04:10.672Z,2.50
2022-12-18T10:07:09.100Z,1.70
2022-12-18T10:09:50.594Z,3.40
2022-12-18T10:12:17.324Z,3.50
2022-12-18T10:14:55.814Z,3.63
2022-12-18T10:17:45.341Z,3.00
2022-12-18T10:20:25.583Z,3.30
2022-12-18T10:22:58.144Z,3.63
2022-12-18T10:25:25.511Z,3.00
2022-12-18T10:28:08.561Z,3.27
2022-12-18T10:33:24.610Z,2.83
2022-12-18T10:36:29.156Z,3.23
2022-12-18T10:39:16.625Z,2.10
2022-12-18T10:42:02.764Z,3.27
2022-12-18T10:44:29.599Z,3.00
2022-12-18T10:47:10.150Z,3.00
2022-12-18T10:49:43.397Z,2.07
2022-12-18T10:52:24.420Z,2.63
2022-12-18T10:54:56.481Z,2.37
2022-12-18T10:57:42.635Z,2.63
2022-12-18T11:00:29.256Z,2.67
2022-12-18T11:02:56.937Z,1.80
2022-12-18T11:05:35.017Z,2.13
2022-12-18T11:08:02.581Z,1.93
2022-12-18T11:10:31.701Z,2.13
2022-12-18T11:13:21.560Z,2.30
2022-12-18T11:15:49.235Z,2.37
2022-12-18T11:18:26.017Z,2.33
2022-12-18T11:21:14.001Z,2.40
2022-12-18T11:23:59.188Z,1.90
2022-12-18T11:26:35.658Z,2.43
2022-12-18T11:29:18.520Z,2.00
2022-12-18T11:31:46.888Z,2.37
2022-12-18T11:34:34.306Z,1.50
2022-12-18T11:37:04.244Z,2.03
2022-12-18T11:40:07.358Z,2.20
2022-12-18T11:42:38.657Z,2.43
2022-12-18T11:45:07.623Z,1.63
2022-12-18T11:47:56.331Z,2.07
2022-12-18T11:50:27.547Z,1.93
2022-12-18T11:53:12.909Z,2.33
2022-12-18T11:56:12.650Z,1.53
2022-12-18T11:58:52.607Z,2.50
2022-12-18T12:04:35.750Z,1.93
2022-12-18T12:07:24.366Z,2.17
2022-12-18T12:09:56.779Z,1.67
2022-12-18T12:12:49.097Z,1.67
2022-12-18T12:15:26.642Z,1.70
2022-12-18T12:17:56.233Z,2.00
2022-12-18T12:20:54.884Z,2.00
2022-12-18T12:24:05.383Z,2.63
2022-12-18T12:29:23.599Z,1.80
2022-12-18T12:31:56.345Z,1.47
2022-12-18T12:34:31.822Z,1.40
2022-12-18T12:40:50.096Z,2.47
2022-12-18T12:43:50.817Z,2.43
2022-12-18T12:46:22.284Z,2.27
2022-12-18T12:49:00.651Z,2.10
2022-12-18T12:51:53.273Z,3.00
2022-12-18T12:54:44.311Z,2.63
2022-12-18T12:57:31.016Z,2.93
2022-12-18T13:03:08.501Z,2.20
2022-12-18T13:05:39.707Z,3.17
2022-12-18T13:08:07.322Z,3.03
2022-12-18T13:10:36.209Z,2.73
2022-12-18T13:13:24.373Z,3.07
2022-12-18T13:16:09.193Z,2.87
2022-12-18T13:18:36.538Z,3.23
2022-12-18T13:21:21.184Z,3.03
2022-12-18T13:23:49.085Z,3.30
2022-12-18T13:26:24.744Z,2.93
2022-12-18T13:28:57.909Z,2.97
2022-12-18T13:31:31.058Z,3.53
2022-12-18T13:34:36.917Z,3.40
2022-12-18T13:37:32.843Z,3.40
2022-12-18T13:39:59.738Z,3.83
2022-12-18T13:42:58.662Z,3.70
2022-12-18T13:46:06.010Z,4.33
2022-12-18T13:48:37.107Z,4.43
2022-12-18T13:53:58.756Z,4.03
2022-12-18T13:56:46.362Z,3.73
2022-12-18T13:59:36.471Z,3.67
2022-12-18T14:02:18.955Z,4.27
2022-12-18T14:05:05.597Z,4.00
2022-12-18T14:08:12.781Z,4.30
2022-12-18T14:11:04.199Z,4.90
2022-12-18T14:13:56.000Z,6.50
2022-12-18T14:16:23.462Z,4.77
2022-12-18T14:19:06.093Z,4.97
2022-12-18T14:21:47.468Z,5.33
2022-12-18T14:24:40.967Z,4.83
2022-12-18T14:27:22.412Z,5.53
2022-12-18T14:29:49.356Z,5.47
2022-12-18T14:32:19.348Z,4.83
2022-12-18T14:34:50.286Z,4.63
2022-12-18T14:37:41.442Z,4.30
2022-12-18T14:40:47.322Z,3.57
2022-12-18T14:43:14.795Z,2.77
2022-12-18T14:48:48.855Z,2.57
2022-12-18T14:51:21.408Z,3.63
2022-12-18T14:54:01.800Z,3.63
2022-12-18T14:56:37.172Z,3.83
2022-12-18T14:59:15.200Z,2.50
2022-12-18T15:02:09.892Z,2.57
2022-12-18T15:04:42.467Z,2.37
2022-12-18T15:07:23.824Z,2.07
2022-12-18T15:10:31.532Z,2.53
2022-12-18T15:13:25.819Z,3.53
2022-12-18T15:16:13.730Z,2.83
2022-12-18T15:18:59.904Z,3.53
2022-12-18T15:21:26.924Z,3.10
2022-12-18T15:23:54.180Z,2.40
2022-12-18T15:26:39.810Z,3.70
2022-12-18T15:29:25.060Z,2.20
2022-12-18T15:32:03.798Z,2.73
2022-12-18T15:35:08.514Z,2.73
2022-12-18T15:37:35.483Z,2.70
2022-12-18T15:40:03.235Z,2.67
2022-12-18T15:42:49.254Z,2.83
2022-12-18T15:45:54.277Z,2.87
2022-12-18T15:48:44.826Z,2.23
2022-12-18T15:51:23.957Z,3.70
2022-12-18T15:57:17.402Z,3.00
2022-12-18T15:59:44.309Z,2.80
2022-12-18T16:03:07.839Z,2.87
2022-12-18T16:06:12.773Z,2.63
2022-12-18T16:08:39.929Z,3.83
2022-12-18T16:11:44.764Z,3.07
2022-12-18T16:14:29.511Z,3.30
2022-12-18T16:16:59.860Z,2.37
2022-12-18T16:19:27.421Z,2.47
2022-12-18T16:21:56.474Z,2.10
2022-12-18T16:24:43.807Z,3.30
2022-12-18T16:27:10.575Z,2.47
2022-12-18T16:29:56.750Z,2.93
2022-12-18T16:32:23.768Z,2.63
2022-12-18T16:34:51.439Z,3.53
2022-12-18T16:43:25.026Z,2.23
2022-12-18T16:48:37.181Z,2.73
2022-12-18T16:51:22.725Z,3.57
2022-12-18T16:53:49.695Z,3.57
2022-12-18T16:56:16.433Z,3.30
2022-12-18T16:58:43.280Z,2.87
2022-12-18T17:01:49.654Z,3.33
2022-12-18T17:10:26.001Z,3.73
2022-12-18T17:12:52.880Z,4.30
2022-12-18T17:15:19.639Z,3.90
2022-12-18T17:17:46.828Z,3.47
2022-12-18T17:20:33.020Z,3.50
2022-12-18T17:22:59.865Z,4.27
2022-12-18T17:26:07.332Z,4.20
2022-12-18T17:28:35.426Z,5.27
2022-12-18T17:31:22.922Z,4.33
2022-12-18T17:33:50.538Z,4.53
2022-12-18T17:36:17.320Z,4.33
2022-12-18T17:38:50.959Z,4.40
2022-12-18T17:41:19.986Z,4.70
2022-12-18T17:43:53.995Z,3.80
2022-12-18T17:49:25.101Z,4.57
2022-12-18T17:54:56.020Z,4.30
2022-12-18T17:57:41.316Z,5.33
2022-12-18T18:00:09.853Z,5.10
2022-12-18T18:02:37.098Z,3.00
2022-12-18T18:11:34.313Z,3.90
2022-12-18T18:14:21.364Z,3.63
2022-12-18T18:19:51.833Z,3.93
2022-12-18T18:22:20.117Z,4.67
2022-12-18T18:24:47.388Z,3.33
2022-12-18T18:30:56.016Z,3.70
2022-12-18T18:33:23.021Z,4.33
2022-12-18T18:35:54.081Z,4.57
2022-12-18T18:38:21.522Z,4.37
2022-12-18T18:40:48.334Z,5.03
2022-12-18T18:43:34.623Z,6.63
2022-12-18T18:46:04.087Z,6.13
2022-12-18T18:48:36.370Z,5.63
2022-12-18T18:51:23.976Z,4.27
2022-12-18T18:53:53.657Z,4.77
2022-12-18T18:57:03.744Z,5.07
2022-12-18T19:05:37.401Z,4.57
2022-12-18T19:08:43.135Z,5.20
2022-12-18T19:11:36.114Z,4.50
2022-12-18T19:14:24.032Z,6.43
2022-12-18T19:17:09.882Z,6.30
2022-12-18T19:19:36.768Z,5.17
2022-12-18T19:22:23.288Z,5.07
2022-12-18T19:24:50.157Z,5.87
2022-12-18T19:27:16.956Z,6.80
2022-12-18T19:29:43.788Z,5.87
2022-12-18T19:32:10.682Z,5.97
2022-12-18T19:34:39.110Z,5.73
2022-12-18T19:37:06.401Z,6.40
2022-12-18T19:40:12.659Z,6.93
2022-12-18T19:42:39.608Z,6.57
2022-12-18T19:45:06.803Z,7.47
2022-12-18T19:47:33.561Z,6.70
2022-12-18T19:50:00.685Z,8.73
2022-12-18T19:52:27.755Z,6.87
2022-12-18T19:54:54.482Z,7.60
2022-12-18T19:57:39.762Z,7.27
2022-12-18T20:13:02.126Z,7.50
2022-12-18T20:15:47.877Z,7.13
2022-12-18T20:18:34.038Z,7.60
2022-12-18T20:21:57.801Z,7.17
2022-12-18T20:27:28.349Z,8.53
2022-12-18T20:30:34.451Z,8.07
2022-12-18T20:33:20.082Z,8.70
2022-12-18T20:36:07.742Z,9.13
2022-12-18T20:41:58.193Z,7.80
2022-12-18T20:44:44.003Z,8.07
2022-12-18T20:47:29.503Z,9.03
2022-12-18T20:49:56.460Z,8.13
2022-12-18T20:52:23.518Z,9.20
2022-12-18T20:54:50.608Z,9.67
2022-12-18T20:57:17.383Z,9.10
2022-12-18T21:00:03.663Z,8.37
2022-12-18T21:02:31.007Z,8.33
2022-12-18T21:04:57.925Z,9.50
2022-12-18T21:07:43.836Z,7.97
2022-12-18T21:10:10.555Z,7.60
2022-12-18T21:12:49.761Z,8.50
2022-12-18T21:15:48.885Z,8.03
2022-12-18T21:18:15.792Z,8.60
2022-12-18T21:20:42.864Z,7.77
2022-12-18T21:23:15.895Z,8.90
2022-12-18T21:25:45.332Z,9.30
2022-12-18T21:28:13.351Z,8.20
2022-12-18T21:30:40.284Z,8.47
2022-12-18T21:33:07.033Z,8.87
2022-12-18T21:35:53.015Z,7.77
2022-12-18T21:38:19.869Z,8.67
2022-12-18T21:40:46.569Z,7.77
2022-12-18T21:46:58.949Z,8.50
2022-12-18T21:49:31.285Z,10.03
2022-12-18T21:52:00.389Z,9.47
2022-12-18T22:00:54.267Z,8.00
2022-12-18T22:03:21.479Z,8.03
2022-12-18T22:06:27.920Z,8.13
2022-12-18T22:08:54.820Z,8.47
2022-12-18T22:11:41.441Z,8.57
2022-12-18T22:14:27.772Z,9.10
2022-12-18T22:17:13.576Z,6.97
2022-12-18T22:20:37.994Z,8.27
2022-12-18T22:23:06.180Z,6.57
2022-12-18T22:25:52.477Z,7.03
2022-12-18T22:28:37.756Z,6.13
2022-12-18T22:31:04.634Z,6.63
2022-12-18T22:33:31.386Z,6.80
2022-12-18T22:35:58.208Z,5.90
2022-12-18T22:41:10.471Z,6.87
2022-12-18T22:43:37.162Z,5.73
2022-12-18T22:46:25.386Z,5.90
2022-12-18T22:49:16.500Z,5.37
2022-12-18T22:51:44.163Z,5.17
2022-12-18T22:54:11.020Z,5.83
2022-12-18T22:56:38.461Z,5.03
2022-12-18T22:59:05.865Z,5.10
2022-12-18T23:01:33.368Z,5.03
2022-12-18T23:04:02.361Z,5.70
2022-12-18T23:06:47.990Z,4.60
2022-12-18T23:09:18.240Z,4.80
2022-12-18T23:11:46.301Z,5.63
2022-12-18T23:14:13.586Z,4.77
2022-12-18T23:16:40.415Z,4.70
2022-12-18T23:19:08.498Z,5.07
2022-12-18T23:21:35.361Z,6.20
2022-12-18T23:24:02.507Z,4.80
2022-12-18T23:26:29.625Z,4.37
2022-12-18T23:29:15.328Z,4.83
2022-12-18T23:31:42.526Z,4.50
2022-12-18T23:34:12.933Z,4.40
2022-12-18T23:36:46.055Z,4.90
2022-12-18T23:39:22.355Z,5.37
2022-12-18T23:42:00.513Z,5.23
2022-12-18T23:44:27.709Z,5.47
2022-12-18T23:46:54.848Z,4.87
2022-12-18T23:49:21.935Z,5.03
2022-12-18T23:51:48.981Z,4.93
2022-12-18T23:54:16.101Z,5.93
2022-12-18T23:56:43.210Z,4.17
2022-12-18T23:59:10.190Z,4.83
